sensor_id;sensor_type;location;lat;lon;timestamp;P1;durP1;ratioP1;P2;durP2;ratioP2
76171;SDS011;64929;51.178;4.138;2022-12-07T00:01:18;5.30;;;2.00;;
76171;SDS011;64929;51.178;4.138;2022-12-07T00:03:46;2.65;;;1.35;;
76171;SDS011;64929;51.178;4.138;2022-12-07T00:06:13;5.80;;;2.17;;
76171;SDS011;64929;51.178;4.138;2022-12-07T00:08:40;3.33;;;1.73;;
76171;SDS011;64929;51.178;4.138;2022-12-07T00:11:08;2.47;;;1.63;;
76171;SDS011;64929;51.178;4.138;2022-12-07T00:13:35;5.03;;;1.83;;
76171;SDS011;64929;51.178;4.138;2022-12-07T00:16:12;3.80;;;2.03;;
76171;SDS011;64929;51.178;4.138;2022-12-07T00:18:43;2.17;;;1.52;;
76171;SDS011;64929;51.178;4.138;2022-12-07T00:21:28;4.32;;;2.10;;
76171;SDS011;64929;51.178;4.138;2022-12-07T00:23:56;3.05;;;1.95;;
76171;SDS011;64929;51.178;4.138;2022-12-07T00:26:23;3.28;;;1.73;;
76171;SDS011;64929;51.178;4.138;2022-12-07T00:31:32;4.43;;;2.00;;
76171;SDS011;64929;51.178;4.138;2022-12-07T00:34:03;3.20;;;1.95;;
76171;SDS011;64929;51.178;4.138;2022-12-07T00:36:34;3.83;;;1.85;;
76171;SDS011;64929;51.178;4.138;2022-12-07T00:39:00;3.00;;;1.63;;
76171;SDS011;64929;51.178;4.138;2022-12-07T00:41:27;2.45;;;1.88;;
76171;SDS011;64929;51.178;4.138;2022-12-07T00:43:53;2.17;;;1.52;;
76171;SDS011;64929;51.178;4.138;2022-12-07T00:46:20;3.30;;;1.73;;
76171;SDS011;64929;51.178;4.138;2022-12-07T00:48:46;2.90;;;1.77;;
76171;SDS011;64929;51.178;4.138;2022-12-07T00:51:14;4.07;;;1.75;;
76171;SDS011;64929;51.178;4.138;2022-12-07T00:53:40;4.03;;;1.77;;
76171;SDS011;64929;51.178;4.138;2022-12-07T00:56:11;2.65;;;1.95;;
76171;SDS011;64929;51.178;4.138;2022-12-07T00:58:39;3.35;;;1.95;;
76171;SDS011;64929;51.178;4.138;2022-12-07T01:01:05;4.63;;;2.33;;
76171;SDS011;64929;51.178;4.138;2022-12-07T01:03:33;2.58;;;1.60;;
76171;SDS011;64929;51.178;4.138;2022-12-07T01:05:59;2.03;;;1.58;;
76171;SDS011;64929;51.178;4.138;2022-12-07T01:08:26;1.30;;;1.20;;
76171;SDS011;64929;51.178;4.138;2022-12-07T01:11:06;2.40;;;1.45;;
76171;SDS011;64929;51.178;4.138;2022-12-07T01:13:34;6.60;;;2.10;;
76171;SDS011;64929;51.178;4.138;2022-12-07T01:16:01;2.13;;;1.27;;
76171;SDS011;64929;51.178;4.138;2022-12-07T01:18:29;2.72;;;1.70;;
76171;SDS011;64929;51.178;4.138;2022-12-07T01:20:57;2.08;;;1.02;;
76171;SDS011;64929;51.178;4.138;2022-12-07T01:23:26;1.98;;;1.77;;
76171;SDS011;64929;51.178;4.138;2022-12-07T01:25:59;2.90;;;1.80;;
76171;SDS011;64929;51.178;4.138;2022-12-07T01:28:27;1.60;;;1.10;;
76171;SDS011;64929;51.178;4.138;2022-12-07T01:30:56;2.95;;;1.50;;
76171;SDS011;64929;51.178;4.138;2022-12-07T01:33:22;1.70;;;1.35;;
76171;SDS011;64929;51.178;4.138;2022-12-07T01:35:48;1.92;;;1.10;;
76171;SDS011;64929;51.178;4.138;2022-12-07T01:38:14;2.92;;;1.65;;
76171;SDS011;64929;51.178;4.138;2022-12-07T01:40:39;3.03;;;1.27;;
76171;SDS011;64929;51.178;4.138;2022-12-07T01:43:13;3.22;;;1.52;;
76171;SDS011;64929;51.178;4.138;2022-12-07T01:45:42;12.40;;;2.10;;
76171;SDS011;64929;51.178;4.138;2022-12-07T01:48:08;4.70;;;1.98;;
76171;SDS011;64929;51.178;4.138;2022-12-07T01:50:36;3.53;;;1.60;;
76171;SDS011;64929;51.178;4.138;2022-12-07T01:53:04;7.20;;;1.80;;
76171;SDS011;64929;51.178;4.138;2022-12-07T01:55:33;3.42;;;1.88;;
76171;SDS011;64929;51.178;4.138;2022-12-07T01:58:01;3.17;;;1.45;;
76171;SDS011;64929;51.178;4.138;2022-12-07T02:00:26;4.10;;;2.15;;
76171;SDS011;64929;51.178;4.138;2022-12-07T02:05:25;2.35;;;1.77;;
76171;SDS011;64929;51.178;4.138;2022-12-07T02:07:51;2.13;;;1.20;;
76171;SDS011;64929;51.178;4.138;2022-12-07T02:10:30;1.60;;;1.42;;
76171;SDS011;64929;51.178;4.138;2022-12-07T02:13:04;6.00;;;1.75;;
76171;SDS011;64929;51.178;4.138;2022-12-07T02:18:33;4.00;;;1.27;;
76171;SDS011;64929;51.178;4.138;2022-12-07T02:21:16;5.93;;;1.90;;
76171;SDS011;64929;51.178;4.138;2022-12-07T02:30:22;7.03;;;1.52;;
76171;SDS011;64929;51.178;4.138;2022-12-07T02:35:29;3.53;;;2.03;;
76171;SDS011;64929;51.178;4.138;2022-12-07T02:45:49;4.32;;;1.35;;
76171;SDS011;64929;51.178;4.138;2022-12-07T02:48:18;2.67;;;1.17;;
76171;SDS011;64929;51.178;4.138;2022-12-07T02:50:48;1.83;;;1.60;;
76171;SDS011;64929;51.178;4.138;2022-12-07T02:53:31;3.83;;;1.35;;
76171;SDS011;64929;51.178;4.138;2022-12-07T02:56:06;1.45;;;1.17;;
76171;SDS011;64929;51.178;4.138;2022-12-07T03:06:57;1.20;;;0.90;;
76171;SDS011;64929;51.178;4.138;2022-12-07T03:09:35;5.65;;;1.50;;
76171;SDS011;64929;51.178;4.138;2022-12-07T03:12:11;1.88;;;1.17;;
76171;SDS011;64929;51.178;4.138;2022-12-07T03:14:52;3.92;;;1.10;;
76171;SDS011;64929;51.178;4.138;2022-12-07T03:17:25;1.85;;;1.17;;
76171;SDS011;64929;51.178;4.138;2022-12-07T03:19:54;1.40;;;1.30;;
76171;SDS011;64929;51.178;4.138;2022-12-07T03:22:23;4.65;;;1.55;;
76171;SDS011;64929;51.178;4.138;2022-12-07T03:24:54;1.52;;;1.08;;
76171;SDS011;64929;51.178;4.138;2022-12-07T03:27:31;3.63;;;1.90;;
76171;SDS011;64929;51.178;4.138;2022-12-07T03:30:05;4.40;;;2.00;;
76171;SDS011;64929;51.178;4.138;2022-12-07T03:32:59;3.00;;;1.13;;
76171;SDS011;64929;51.178;4.138;2022-12-07T03:35:29;1.95;;;1.55;;
76171;SDS011;64929;51.178;4.138;2022-12-07T03:38:01;1.48;;;0.90;;
76171;SDS011;64929;51.178;4.138;2022-12-07T03:40:44;2.05;;;1.10;;
76171;SDS011;64929;51.178;4.138;2022-12-07T03:43:33;2.90;;;1.35;;
76171;SDS011;64929;51.178;4.138;2022-12-07T03:49:32;3.58;;;1.25;;
76171;SDS011;64929;51.178;4.138;2022-12-07T03:54:39;1.63;;;1.25;;
76171;SDS011;64929;51.178;4.138;2022-12-07T03:57:25;1.35;;;1.20;;
76171;SDS011;64929;51.178;4.138;2022-12-07T03:59:53;4.72;;;1.65;;
76171;SDS011;64929;51.178;4.138;2022-12-07T04:02:20;4.35;;;1.05;;
76171;SDS011;64929;51.178;4.138;2022-12-07T04:04:47;1.80;;;1.27;;
76171;SDS011;64929;51.178;4.138;2022-12-07T04:07:12;3.47;;;0.90;;
76171;SDS011;64929;51.178;4.138;2022-12-07T04:09:38;2.53;;;1.13;;
76171;SDS011;64929;51.178;4.138;2022-12-07T04:12:04;3.47;;;0.93;;
76171;SDS011;64929;51.178;4.138;2022-12-07T04:14:30;1.73;;;1.10;;
76171;SDS011;64929;51.178;4.138;2022-12-07T04:16:57;2.75;;;1.00;;
76171;SDS011;64929;51.178;4.138;2022-12-07T04:19:30;3.85;;;2.15;;
76171;SDS011;64929;51.178;4.138;2022-12-07T04:21:57;2.10;;;1.25;;
76171;SDS011;64929;51.178;4.138;2022-12-07T04:24:24;1.38;;;1.00;;
76171;SDS011;64929;51.178;4.138;2022-12-07T04:26:50;3.17;;;1.30;;
76171;SDS011;64929;51.178;4.138;2022-12-07T04:29:16;4.47;;;1.67;;
76171;SDS011;64929;51.178;4.138;2022-12-07T04:31:43;1.85;;;1.05;;
76171;SDS011;64929;51.178;4.138;2022-12-07T04:34:09;1.85;;;1.05;;
76171;SDS011;64929;51.178;4.138;2022-12-07T04:36:36;1.95;;;1.45;;
76171;SDS011;64929;51.178;4.138;2022-12-07T04:39:02;1.77;;;1.48;;
76171;SDS011;64929;51.178;4.138;2022-12-07T04:41:29;1.48;;;1.20;;
76171;SDS011;64929;51.178;4.138;2022-12-07T04:44:00;1.23;;;0.93;;
76171;SDS011;64929;51.178;4.138;2022-12-07T04:46:28;2.58;;;0.85;;
76171;SDS011;64929;51.178;4.138;2022-12-07T04:48:54;7.88;;;1.88;;
76171;SDS011;64929;51.178;4.138;2022-12-07T04:51:22;1.90;;;1.00;;
76171;SDS011;64929;51.178;4.138;2022-12-07T04:53:49;2.95;;;1.52;;
76171;SDS011;64929;51.178;4.138;2022-12-07T04:56:15;1.00;;;0.82;;
76171;SDS011;64929;51.178;4.138;2022-12-07T04:58:43;1.33;;;0.98;;
76171;SDS011;64929;51.178;4.138;2022-12-07T05:01:10;1.88;;;1.17;;
76171;SDS011;64929;51.178;4.138;2022-12-07T05:03:36;1.00;;;0.90;;
76171;SDS011;64929;51.178;4.138;2022-12-07T05:06:03;4.45;;;1.50;;
76171;SDS011;64929;51.178;4.138;2022-12-07T05:08:29;2.72;;;1.05;;
76171;SDS011;64929;51.178;4.138;2022-12-07T05:10:55;1.90;;;1.38;;
76171;SDS011;64929;51.178;4.138;2022-12-07T05:13:21;6.43;;;1.52;;
76171;SDS011;64929;51.178;4.138;2022-12-07T05:15:47;5.15;;;1.83;;
76171;SDS011;64929;51.178;4.138;2022-12-07T05:18:13;2.72;;;1.52;;
76171;SDS011;64929;51.178;4.138;2022-12-07T05:20:39;2.17;;;1.27;;
76171;SDS011;64929;51.178;4.138;2022-12-07T05:23:06;2.53;;;1.33;;
76171;SDS011;64929;51.178;4.138;2022-12-07T05:25:34;0.80;;;0.73;;
76171;SDS011;64929;51.178;4.138;2022-12-07T05:28:03;1.73;;;1.45;;
76171;SDS011;64929;51.178;4.138;2022-12-07T05:30:30;1.90;;;1.00;;
76171;SDS011;64929;51.178;4.138;2022-12-07T05:32:55;2.75;;;1.27;;
76171;SDS011;64929;51.178;4.138;2022-12-07T05:35:21;7.78;;;1.05;;
76171;SDS011;64929;51.178;4.138;2022-12-07T05:37:47;3.50;;;2.15;;
76171;SDS011;64929;51.178;4.138;2022-12-07T05:40:13;10.32;;;6.32;;
76171;SDS011;64929;51.178;4.138;2022-12-07T05:42:40;7.57;;;4.30;;
76171;SDS011;64929;51.178;4.138;2022-12-07T05:45:06;1.80;;;1.42;;
76171;SDS011;64929;51.178;4.138;2022-12-07T05:47:32;1.95;;;1.20;;
76171;SDS011;64929;51.178;4.138;2022-12-07T05:49:58;1.35;;;0.98;;
76171;SDS011;64929;51.178;4.138;2022-12-07T05:52:24;2.92;;;1.45;;
76171;SDS011;64929;51.178;4.138;2022-12-07T05:54:50;2.05;;;1.67;;
76171;SDS011;64929;51.178;4.138;2022-12-07T05:57:17;3.17;;;1.65;;
76171;SDS011;64929;51.178;4.138;2022-12-07T05:59:42;1.40;;;0.88;;
76171;SDS011;64929;51.178;4.138;2022-12-07T06:02:09;2.33;;;1.05;;
76171;SDS011;64929;51.178;4.138;2022-12-07T06:04:37;1.25;;;1.05;;
76171;SDS011;64929;51.178;4.138;2022-12-07T06:07:06;2.43;;;1.67;;
76171;SDS011;64929;51.178;4.138;2022-12-07T06:09:32;1.25;;;1.02;;
76171;SDS011;64929;51.178;4.138;2022-12-07T06:11:58;2.40;;;1.33;;
76171;SDS011;64929;51.178;4.138;2022-12-07T06:14:43;22.67;;;1.63;;
76171;SDS011;64929;51.178;4.138;2022-12-07T06:17:09;1.30;;;1.20;;
76171;SDS011;64929;51.178;4.138;2022-12-07T06:19:35;3.92;;;1.38;;
76171;SDS011;64929;51.178;4.138;2022-12-07T06:22:02;1.23;;;1.05;;
76171;SDS011;64929;51.178;4.138;2022-12-07T06:24:29;1.15;;;1.05;;
76171;SDS011;64929;51.178;4.138;2022-12-07T06:26:58;1.85;;;1.13;;
76171;SDS011;64929;51.178;4.138;2022-12-07T06:29:24;1.50;;;1.33;;
76171;SDS011;64929;51.178;4.138;2022-12-07T06:31:50;2.17;;;1.35;;
76171;SDS011;64929;51.178;4.138;2022-12-07T06:34:17;2.35;;;1.45;;
76171;SDS011;64929;51.178;4.138;2022-12-07T06:36:44;1.27;;;1.15;;
76171;SDS011;64929;51.178;4.138;2022-12-07T06:39:12;1.52;;;1.02;;
76171;SDS011;64929;51.178;4.138;2022-12-07T06:41:38;2.25;;;1.23;;
76171;SDS011;64929;51.178;4.138;2022-12-07T06:44:04;1.63;;;1.33;;
76171;SDS011;64929;51.178;4.138;2022-12-07T06:46:31;4.15;;;1.50;;
76171;SDS011;64929;51.178;4.138;2022-12-07T06:48:57;3.67;;;2.28;;
76171;SDS011;64929;51.178;4.138;2022-12-07T06:51:23;2.20;;;1.80;;
76171;SDS011;64929;51.178;4.138;2022-12-07T06:53:49;5.07;;;1.88;;
76171;SDS011;64929;51.178;4.138;2022-12-07T06:56:14;3.50;;;1.27;;
76171;SDS011;64929;51.178;4.138;2022-12-07T06:58:40;1.50;;;1.40;;
76171;SDS011;64929;51.178;4.138;2022-12-07T07:01:09;1.73;;;1.40;;
76171;SDS011;64929;51.178;4.138;2022-12-07T07:06:02;3.25;;;1.27;;
76171;SDS011;64929;51.178;4.138;2022-12-07T07:08:28;3.70;;;1.88;;
76171;SDS011;64929;51.178;4.138;2022-12-07T07:10:54;2.47;;;2.28;;
76171;SDS011;64929;51.178;4.138;2022-12-07T07:13:20;3.17;;;1.27;;
76171;SDS011;64929;51.178;4.138;2022-12-07T07:15:45;1.13;;;1.02;;
76171;SDS011;64929;51.178;4.138;2022-12-07T07:18:11;2.95;;;1.20;;
76171;SDS011;64929;51.178;4.138;2022-12-07T07:20:37;1.77;;;1.30;;
76171;SDS011;64929;51.178;4.138;2022-12-07T07:23:03;1.90;;;1.30;;
76171;SDS011;64929;51.178;4.138;2022-12-07T07:25:29;1.38;;;1.02;;
76171;SDS011;64929;51.178;4.138;2022-12-07T07:27:55;2.15;;;1.27;;
76171;SDS011;64929;51.178;4.138;2022-12-07T07:30:20;4.55;;;1.05;;
76171;SDS011;64929;51.178;4.138;2022-12-07T07:32:46;1.40;;;1.00;;
76171;SDS011;64929;51.178;4.138;2022-12-07T07:35:12;1.10;;;1.00;;
76171;SDS011;64929;51.178;4.138;2022-12-07T07:37:39;2.38;;;1.38;;
76171;SDS011;64929;51.178;4.138;2022-12-07T07:40:05;4.88;;;1.38;;
76171;SDS011;64929;51.178;4.138;2022-12-07T07:42:31;2.40;;;0.90;;
76171;SDS011;64929;51.178;4.138;2022-12-07T07:44:57;1.40;;;0.90;;
76171;SDS011;64929;51.178;4.138;2022-12-07T07:47:22;5.50;;;1.50;;
76171;SDS011;64929;51.178;4.138;2022-12-07T07:49:48;1.15;;;1.00;;
76171;SDS011;64929;51.178;4.138;2022-12-07T07:52:14;2.88;;;1.00;;
76171;SDS011;64929;51.178;4.138;2022-12-07T07:54:39;1.80;;;1.25;;
76171;SDS011;64929;51.178;4.138;2022-12-07T07:57:05;1.23;;;1.08;;
76171;SDS011;64929;51.178;4.138;2022-12-07T07:59:31;1.75;;;1.02;;
76171;SDS011;64929;51.178;4.138;2022-12-07T08:01:56;2.47;;;1.67;;
76171;SDS011;64929;51.178;4.138;2022-12-07T08:04:22;4.10;;;1.40;;
76171;SDS011;64929;51.178;4.138;2022-12-07T08:06:48;4.07;;;1.50;;
76171;SDS011;64929;51.178;4.138;2022-12-07T08:09:13;13.43;;;2.22;;
76171;SDS011;64929;51.178;4.138;2022-12-07T08:11:39;2.20;;;1.02;;
76171;SDS011;64929;51.178;4.138;2022-12-07T08:14:04;1.73;;;1.25;;
76171;SDS011;64929;51.178;4.138;2022-12-07T08:16:30;1.60;;;0.65;;
76171;SDS011;64929;51.178;4.138;2022-12-07T08:18:56;3.97;;;0.98;;
76171;SDS011;64929;51.178;4.138;2022-12-07T08:21:21;3.17;;;0.80;;
76171;SDS011;64929;51.178;4.138;2022-12-07T08:23:47;2.40;;;1.38;;
76171;SDS011;64929;51.178;4.138;2022-12-07T08:26:13;2.05;;;1.38;;
76171;SDS011;64929;51.178;4.138;2022-12-07T08:28:40;1.85;;;1.33;;
76171;SDS011;64929;51.178;4.138;2022-12-07T08:31:07;2.08;;;1.50;;
76171;SDS011;64929;51.178;4.138;2022-12-07T08:33:36;1.42;;;1.13;;
76171;SDS011;64929;51.178;4.138;2022-12-07T08:36:02;2.83;;;1.13;;
76171;SDS011;64929;51.178;4.138;2022-12-07T08:38:30;2.65;;;1.20;;
76171;SDS011;64929;51.178;4.138;2022-12-07T08:40:56;5.38;;;1.08;;
76171;SDS011;64929;51.178;4.138;2022-12-07T08:43:23;3.35;;;1.50;;
76171;SDS011;64929;51.178;4.138;2022-12-07T08:45:52;3.88;;;1.55;;
76171;SDS011;64929;51.178;4.138;2022-12-07T08:48:40;1.70;;;1.10;;
76171;SDS011;64929;51.178;4.138;2022-12-07T08:51:11;1.80;;;0.90;;
76171;SDS011;64929;51.178;4.138;2022-12-07T08:53:38;2.00;;;1.20;;
76171;SDS011;64929;51.178;4.138;2022-12-07T08:56:05;3.88;;;1.88;;
76171;SDS011;64929;51.178;4.138;2022-12-07T08:58:33;2.55;;;1.77;;
76171;SDS011;64929;51.178;4.138;2022-12-07T09:01:00;4.07;;;1.50;;
76171;SDS011;64929;51.178;4.138;2022-12-07T09:03:26;3.45;;;1.77;;
76171;SDS011;64929;51.178;4.138;2022-12-07T09:05:52;12.98;;;2.55;;
76171;SDS011;64929;51.178;4.138;2022-12-07T09:08:18;2.45;;;1.73;;
76171;SDS011;64929;51.178;4.138;2022-12-07T09:10:45;3.80;;;1.90;;
76171;SDS011;64929;51.178;4.138;2022-12-07T09:13:11;2.90;;;1.42;;
76171;SDS011;64929;51.178;4.138;2022-12-07T09:15:37;2.20;;;1.42;;
76171;SDS011;64929;51.178;4.138;2022-12-07T09:18:02;5.90;;;1.60;;
76171;SDS011;64929;51.178;4.138;2022-12-07T09:20:28;1.83;;;1.13;;
76171;SDS011;64929;51.178;4.138;2022-12-07T09:22:54;2.80;;;2.05;;
76171;SDS011;64929;51.178;4.138;2022-12-07T09:25:19;4.60;;;3.22;;
76171;SDS011;64929;51.178;4.138;2022-12-07T09:27:45;4.80;;;1.65;;
76171;SDS011;64929;51.178;4.138;2022-12-07T09:30:11;4.43;;;1.60;;
76171;SDS011;64929;51.178;4.138;2022-12-07T09:32:37;12.07;;;2.15;;
76171;SDS011;64929;51.178;4.138;2022-12-07T09:35:03;2.40;;;1.83;;
76171;SDS011;64929;51.178;4.138;2022-12-07T09:37:28;3.55;;;1.83;;
76171;SDS011;64929;51.178;4.138;2022-12-07T09:39:56;2.38;;;2.00;;
76171;SDS011;64929;51.178;4.138;2022-12-07T09:44:55;2.90;;;1.13;;
76171;SDS011;64929;51.178;4.138;2022-12-07T09:47:21;3.63;;;1.65;;
76171;SDS011;64929;51.178;4.138;2022-12-07T09:49:47;3.53;;;1.70;;
76171;SDS011;64929;51.178;4.138;2022-12-07T09:54:49;2.13;;;1.85;;
76171;SDS011;64929;51.178;4.138;2022-12-07T09:57:15;2.20;;;1.40;;
76171;SDS011;64929;51.178;4.138;2022-12-07T09:59:42;5.05;;;1.98;;
76171;SDS011;64929;51.178;4.138;2022-12-07T10:02:24;2.38;;;1.50;;
76171;SDS011;64929;51.178;4.138;2022-12-07T10:04:57;4.90;;;1.80;;
76171;SDS011;64929;51.178;4.138;2022-12-07T10:07:23;3.33;;;1.70;;
76171;SDS011;64929;51.178;4.138;2022-12-07T10:09:49;2.92;;;1.77;;
76171;SDS011;64929;51.178;4.138;2022-12-07T10:12:14;1.50;;;1.33;;
76171;SDS011;64929;51.178;4.138;2022-12-07T10:14:52;2.78;;;1.63;;
76171;SDS011;64929;51.178;4.138;2022-12-07T10:17:28;2.05;;;1.52;;
76171;SDS011;64929;51.178;4.138;2022-12-07T10:22:54;3.88;;;1.83;;
76171;SDS011;64929;51.178;4.138;2022-12-07T10:25:27;3.10;;;2.28;;
76171;SDS011;64929;51.178;4.138;2022-12-07T10:28:02;3.58;;;1.58;;
76171;SDS011;64929;51.178;4.138;2022-12-07T10:30:31;2.80;;;1.48;;
76171;SDS011;64929;51.178;4.138;2022-12-07T10:32:59;4.00;;;1.58;;
76171;SDS011;64929;51.178;4.138;2022-12-07T10:35:28;2.50;;;1.35;;
76171;SDS011;64929;51.178;4.138;2022-12-07T10:40:27;5.20;;;1.83;;
76171;SDS011;64929;51.178;4.138;2022-12-07T10:43:02;3.63;;;1.58;;
76171;SDS011;64929;51.178;4.138;2022-12-07T10:45:35;3.22;;;1.30;;
76171;SDS011;64929;51.178;4.138;2022-12-07T10:53:48;7.03;;;1.67;;
76171;SDS011;64929;51.178;4.138;2022-12-07T10:59:01;5.18;;;2.30;;
76171;SDS011;64929;51.178;4.138;2022-12-07T11:01:45;3.53;;;1.55;;
76171;SDS011;64929;51.178;4.138;2022-12-07T11:04:27;5.47;;;2.00;;
76171;SDS011;64929;51.178;4.138;2022-12-07T11:15:26;5.13;;;1.80;;
76171;SDS011;64929;51.178;4.138;2022-12-07T11:18:09;2.08;;;1.52;;
76171;SDS011;64929;51.178;4.138;2022-12-07T11:26:08;4.60;;;1.30;;
76171;SDS011;64929;51.178;4.138;2022-12-07T11:34:39;4.40;;;2.20;;
76171;SDS011;64929;51.178;4.138;2022-12-07T11:37:31;4.20;;;1.40;;
76171;SDS011;64929;51.178;4.138;2022-12-07T11:40:22;5.00;;;1.20;;
76171;SDS011;64929;51.178;4.138;2022-12-07T11:42:51;2.80;;;1.23;;
76171;SDS011;64929;51.178;4.138;2022-12-07T11:45:32;2.72;;;1.35;;
76171;SDS011;64929;51.178;4.138;2022-12-07T11:53:05;4.90;;;1.88;;
76171;SDS011;64929;51.178;4.138;2022-12-07T12:03:58;5.45;;;1.75;;
76171;SDS011;64929;51.178;4.138;2022-12-07T12:06:26;3.47;;;1.23;;
76171;SDS011;64929;51.178;4.138;2022-12-07T12:08:56;4.50;;;1.10;;
76171;SDS011;64929;51.178;4.138;2022-12-07T12:14:35;5.72;;;1.75;;
76171;SDS011;64929;51.178;4.138;2022-12-07T12:20:00;1.08;;;0.70;;
76171;SDS011;64929;51.178;4.138;2022-12-07T12:22:34;8.30;;;0.90;;
76171;SDS011;64929;51.178;4.138;2022-12-07T12:25:04;3.38;;;1.30;;
76171;SDS011;64929;51.178;4.138;2022-12-07T12:27:36;5.47;;;1.10;;
76171;SDS011;64929;51.178;4.138;2022-12-07T12:30:05;2.67;;;1.05;;
76171;SDS011;64929;51.178;4.138;2022-12-07T12:32:39;2.47;;;1.02;;
76171;SDS011;64929;51.178;4.138;2022-12-07T12:37:54;3.33;;;1.10;;
76171;SDS011;64929;51.178;4.138;2022-12-07T12:42:55;1.17;;;0.50;;
76171;SDS011;64929;51.178;4.138;2022-12-07T12:45:23;1.20;;;0.57;;
76171;SDS011;64929;51.178;4.138;2022-12-07T12:47:59;1.63;;;0.52;;
76171;SDS011;64929;51.178;4.138;2022-12-07T12:50:32;0.93;;;0.20;;
76171;SDS011;64929;51.178;4.138;2022-12-07T12:53:01;5.45;;;0.35;;
76171;SDS011;64929;51.178;4.138;2022-12-07T13:00:42;0.73;;;0.32;;
76171;SDS011;64929;51.178;4.138;2022-12-07T13:03:26;2.23;;;0.97;;
76171;SDS011;64929;51.178;4.138;2022-12-07T13:06:16;0.93;;;0.20;;
76171;SDS011;64929;51.178;4.138;2022-12-07T13:08:44;0.20;;;0.15;;
76171;SDS011;64929;51.178;4.138;2022-12-07T13:11:25;1.00;;;0.30;;
76171;SDS011;64929;51.178;4.138;2022-12-07T13:16:59;0.32;;;0.28;;
76171;SDS011;64929;51.178;4.138;2022-12-07T13:24:57;0.95;;;0.40;;
76171;SDS011;64929;51.178;4.138;2022-12-07T13:27:24;1.88;;;0.43;;
76171;SDS011;64929;51.178;4.138;2022-12-07T13:29:52;0.38;;;0.38;;
76171;SDS011;64929;51.178;4.138;2022-12-07T13:32:24;1.40;;;0.68;;
76171;SDS011;64929;51.178;4.138;2022-12-07T13:34:53;1.67;;;1.13;;
76171;SDS011;64929;51.178;4.138;2022-12-07T13:39:52;2.03;;;0.40;;
76171;SDS011;64929;51.178;4.138;2022-12-07T13:42:28;0.40;;;0.20;;
76171;SDS011;64929;51.178;4.138;2022-12-07T13:44:55;0.32;;;0.30;;
76171;SDS011;64929;51.178;4.138;2022-12-07T13:47:34;0.38;;;0.20;;
76171;SDS011;64929;51.178;4.138;2022-12-07T13:50:24;0.30;;;0.20;;
76171;SDS011;64929;51.178;4.138;2022-12-07T13:52:54;2.92;;;0.70;;
76171;SDS011;64929;51.178;4.138;2022-12-07T13:55:21;0.73;;;0.20;;
76171;SDS011;64929;51.178;4.138;2022-12-07T13:57:48;0.75;;;0.28;;
76171;SDS011;64929;51.178;4.138;2022-12-07T14:00:18;9.50;;;3.58;;
76171;SDS011;64929;51.178;4.138;2022-12-07T14:02:59;8.20;;;2.78;;
76171;SDS011;64929;51.178;4.138;2022-12-07T14:05:28;7.43;;;3.00;;
76171;SDS011;64929;51.178;4.138;2022-12-07T14:08:06;6.40;;;2.58;;
76171;SDS011;64929;51.178;4.138;2022-12-07T14:13:35;0.75;;;0.70;;
76171;SDS011;64929;51.178;4.138;2022-12-07T14:16:18;1.27;;;1.17;;
76171;SDS011;64929;51.178;4.138;2022-12-07T14:18:50;1.00;;;0.75;;
76171;SDS011;64929;51.178;4.138;2022-12-07T14:21:17;1.10;;;0.88;;
76171;SDS011;64929;51.178;4.138;2022-12-07T14:23:45;1.65;;;0.52;;
76171;SDS011;64929;51.178;4.138;2022-12-07T14:26:27;1.20;;;0.75;;
76171;SDS011;64929;51.178;4.138;2022-12-07T14:28:52;2.55;;;0.75;;
76171;SDS011;64929;51.178;4.138;2022-12-07T14:31:38;0.60;;;0.60;;
76171;SDS011;64929;51.178;4.138;2022-12-07T14:34:04;0.70;;;0.45;;
76171;SDS011;64929;51.178;4.138;2022-12-07T14:36:29;1.63;;;0.63;;
76171;SDS011;64929;51.178;4.138;2022-12-07T14:38:55;4.95;;;0.65;;
76171;SDS011;64929;51.178;4.138;2022-12-07T14:41:23;2.50;;;0.65;;
76171;SDS011;64929;51.178;4.138;2022-12-07T14:44:09;0.73;;;0.65;;
76171;SDS011;64929;51.178;4.138;2022-12-07T14:46:36;0.77;;;0.60;;
76171;SDS011;64929;51.178;4.138;2022-12-07T14:49:02;0.40;;;0.20;;
76171;SDS011;64929;51.178;4.138;2022-12-07T14:51:28;0.85;;;0.82;;
76171;SDS011;64929;51.178;4.138;2022-12-07T14:53:53;1.40;;;0.70;;
76171;SDS011;64929;51.178;4.138;2022-12-07T14:56:19;1.13;;;0.55;;
76171;SDS011;64929;51.178;4.138;2022-12-07T14:58:45;3.95;;;0.80;;
76171;SDS011;64929;51.178;4.138;2022-12-07T15:01:13;3.90;;;0.93;;
76171;SDS011;64929;51.178;4.138;2022-12-07T15:03:39;1.00;;;0.65;;
76171;SDS011;64929;51.178;4.138;2022-12-07T15:06:06;0.70;;;0.70;;
76171;SDS011;64929;51.178;4.138;2022-12-07T15:08:32;2.78;;;1.00;;
76171;SDS011;64929;51.178;4.138;2022-12-07T15:10:58;1.10;;;0.40;;
76171;SDS011;64929;51.178;4.138;2022-12-07T15:13:24;3.20;;;0.93;;
76171;SDS011;64929;51.178;4.138;2022-12-07T15:16:10;0.55;;;0.40;;
76171;SDS011;64929;51.178;4.138;2022-12-07T15:18:44;1.52;;;0.50;;
76171;SDS011;64929;51.178;4.138;2022-12-07T15:21:14;1.00;;;0.75;;
76171;SDS011;64929;51.178;4.138;2022-12-07T15:23:40;0.90;;;0.40;;
76171;SDS011;64929;51.178;4.138;2022-12-07T15:26:09;9.27;;;0.60;;
76171;SDS011;64929;51.178;4.138;2022-12-07T15:28:35;1.48;;;0.50;;
76171;SDS011;64929;51.178;4.138;2022-12-07T15:31:01;0.47;;;0.30;;
76171;SDS011;64929;51.178;4.138;2022-12-07T15:33:26;2.53;;;0.52;;
76171;SDS011;64929;51.178;4.138;2022-12-07T15:35:52;2.90;;;1.40;;
76171;SDS011;64929;51.178;4.138;2022-12-07T15:38:18;2.03;;;1.02;;
76171;SDS011;64929;51.178;4.138;2022-12-07T15:40:46;2.25;;;1.02;;
76171;SDS011;64929;51.178;4.138;2022-12-07T15:43:12;0.75;;;0.65;;
76171;SDS011;64929;51.178;4.138;2022-12-07T15:45:56;4.50;;;0.73;;
76171;SDS011;64929;51.178;4.138;2022-12-07T15:48:24;3.30;;;0.73;;
76171;SDS011;64929;51.178;4.138;2022-12-07T15:50:50;7.93;;;3.88;;
76171;SDS011;64929;51.178;4.138;2022-12-07T15:53:16;7.30;;;3.05;;
76171;SDS011;64929;51.178;4.138;2022-12-07T15:55:42;7.22;;;2.20;;
76171;SDS011;64929;51.178;4.138;2022-12-07T15:58:07;6.32;;;3.10;;
76171;SDS011;64929;51.178;4.138;2022-12-07T16:00:33;13.00;;;5.53;;
76171;SDS011;64929;51.178;4.138;2022-12-07T16:03:00;9.45;;;3.63;;
76171;SDS011;64929;51.178;4.138;2022-12-07T16:05:26;1.77;;;1.13;;
76171;SDS011;64929;51.178;4.138;2022-12-07T16:07:57;1.65;;;0.85;;
76171;SDS011;64929;51.178;4.138;2022-12-07T16:10:24;1.77;;;1.20;;
76171;SDS011;64929;51.178;4.138;2022-12-07T16:12:50;1.88;;;0.85;;
76171;SDS011;64929;51.178;4.138;2022-12-07T16:15:15;2.42;;;1.17;;
76171;SDS011;64929;51.178;4.138;2022-12-07T16:17:41;4.28;;;1.23;;
76171;SDS011;64929;51.178;4.138;2022-12-07T16:20:07;4.13;;;2.03;;
76171;SDS011;64929;51.178;4.138;2022-12-07T16:22:33;3.17;;;1.30;;
76171;SDS011;64929;51.178;4.138;2022-12-07T16:24:59;2.53;;;1.15;;
76171;SDS011;64929;51.178;4.138;2022-12-07T16:27:24;2.75;;;1.58;;
76171;SDS011;64929;51.178;4.138;2022-12-07T16:29:50;1.92;;;1.40;;
76171;SDS011;64929;51.178;4.138;2022-12-07T16:32:15;3.10;;;1.42;;
76171;SDS011;64929;51.178;4.138;2022-12-07T16:34:41;2.90;;;1.90;;
76171;SDS011;64929;51.178;4.138;2022-12-07T16:37:07;4.68;;;2.42;;
76171;SDS011;64929;51.178;4.138;2022-12-07T16:39:33;4.47;;;1.98;;
76171;SDS011;64929;51.178;4.138;2022-12-07T16:41:59;5.30;;;1.80;;
76171;SDS011;64929;51.178;4.138;2022-12-07T16:44:25;2.45;;;1.42;;
76171;SDS011;64929;51.178;4.138;2022-12-07T16:46:51;6.95;;;2.67;;
76171;SDS011;64929;51.178;4.138;2022-12-07T16:49:16;7.25;;;4.43;;
76171;SDS011;64929;51.178;4.138;2022-12-07T16:51:43;2.95;;;1.88;;
76171;SDS011;64929;51.178;4.138;2022-12-07T16:54:10;1.73;;;1.17;;
76171;SDS011;64929;51.178;4.138;2022-12-07T16:56:36;3.13;;;2.00;;
76171;SDS011;64929;51.178;4.138;2022-12-07T16:59:02;6.63;;;2.60;;
76171;SDS011;64929;51.178;4.138;2022-12-07T17:01:28;6.00;;;3.35;;
76171;SDS011;64929;51.178;4.138;2022-12-07T17:03:56;3.30;;;2.70;;